sensor_id;sensor_type;location;lat;lon;timestamp;P1;durP1;ratioP1;P2;durP2;ratioP2
20324;SDS011;10320;49.482;11.256;2023-05-19T00:00:45;2.70;;;1.90;;
20324;SDS011;10320;49.482;11.256;2023-05-19T00:03:11;3.53;;;2.10;;
20324;SDS011;10320;49.482;11.256;2023-05-19T00:05:38;4.77;;;2.00;;
20324;SDS011;10320;49.482;11.256;2023-05-19T00:08:09;4.20;;;2.10;;
20324;SDS011;10320;49.482;11.256;2023-05-19T00:10:35;2.50;;;1.90;;
20324;SDS011;10320;49.482;11.256;2023-05-19T00:13:01;5.27;;;2.40;;
20324;SDS011;10320;49.482;11.256;2023-05-19T00:15:28;3.00;;;2.00;;
20324;SDS011;10320;49.482;11.256;2023-05-19T00:17:54;4.10;;;1.90;;
20324;SDS011;10320;49.482;11.256;2023-05-19T00:20:20;4.07;;;2.20;;
20324;SDS011;10320;49.482;11.256;2023-05-19T00:22:47;4.90;;;2.07;;
20324;SDS011;10320;49.482;11.256;2023-05-19T00:25:13;4.87;;;2.07;;
20324;SDS011;10320;49.482;11.256;2023-05-19T00:27:39;4.43;;;2.07;;
20324;SDS011;10320;49.482;11.256;2023-05-19T00:30:05;4.07;;;2.10;;
20324;SDS011;10320;49.482;11.256;2023-05-19T00:32:31;2.83;;;1.90;;
20324;SDS011;10320;49.482;11.256;2023-05-19T00:34:58;5.33;;;2.00;;
20324;SDS011;10320;49.482;11.256;2023-05-19T00:37:24;4.83;;;1.90;;
20324;SDS011;10320;49.482;11.256;2023-05-19T00:39:50;5.60;;;2.30;;
20324;SDS011;10320;49.482;11.256;2023-05-19T00:42:16;4.30;;;2.17;;
20324;SDS011;10320;49.482;11.256;2023-05-19T00:44:42;4.43;;;2.33;;
20324;SDS011;10320;49.482;11.256;2023-05-19T00:47:08;4.37;;;2.20;;
20324;SDS011;10320;49.482;11.256;2023-05-19T00:49:34;3.13;;;2.10;;
20324;SDS011;10320;49.482;11.256;2023-05-19T00:52:00;3.33;;;2.30;;
20324;SDS011;10320;49.482;11.256;2023-05-19T00:54:27;4.50;;;1.90;;
20324;SDS011;10320;49.482;11.256;2023-05-19T00:56:56;2.97;;;2.00;;
20324;SDS011;10320;49.482;11.256;2023-05-19T00:59:23;3.67;;;2.23;;
20324;SDS011;10320;49.482;11.256;2023-05-19T01:01:49;4.63;;;2.10;;
20324;SDS011;10320;49.482;11.256;2023-05-19T01:04:19;2.97;;;1.97;;
20324;SDS011;10320;49.482;11.256;2023-05-19T01:06:48;4.03;;;2.20;;
20324;SDS011;10320;49.482;11.256;2023-05-19T01:09:19;4.33;;;2.10;;
20324;SDS011;10320;49.482;11.256;2023-05-19T01:11:46;3.63;;;2.20;;
20324;SDS011;10320;49.482;11.256;2023-05-19T01:14:12;4.57;;;2.17;;
20324;SDS011;10320;49.482;11.256;2023-05-19T01:16:39;4.03;;;1.90;;
20324;SDS011;10320;49.482;11.256;2023-05-19T01:19:16;4.30;;;2.20;;
20324;SDS011;10320;49.482;11.256;2023-05-19T01:32:48;2.20;;;1.93;;
20324;SDS011;10320;49.482;11.256;2023-05-19T01:35:17;3.07;;;2.27;;
20324;SDS011;10320;49.482;11.256;2023-05-19T01:37:43;3.03;;;2.10;;
20324;SDS011;10320;49.482;11.256;2023-05-19T01:40:10;2.20;;;2.00;;
20324;SDS011;10320;49.482;11.256;2023-05-19T01:42:36;3.87;;;2.20;;
20324;SDS011;10320;49.482;11.256;2023-05-19T01:45:04;5.83;;;2.13;;
20324;SDS011;10320;49.482;11.256;2023-05-19T01:47:34;3.83;;;2.30;;
20324;SDS011;10320;49.482;11.256;2023-05-19T01:50:02;4.03;;;2.20;;
20324;SDS011;10320;49.482;11.256;2023-05-19T01:52:28;3.90;;;2.23;;
20324;SDS011;10320;49.482;11.256;2023-05-19T01:54:54;3.67;;;2.30;;
20324;SDS011;10320;49.482;11.256;2023-05-19T01:57:23;3.53;;;2.20;;
20324;SDS011;10320;49.482;11.256;2023-05-19T02:05:25;2.67;;;2.03;;
20324;SDS011;10320;49.482;11.256;2023-05-19T02:08:11;4.10;;;2.37;;
20324;SDS011;10320;49.482;11.256;2023-05-19T02:10:39;2.53;;;1.63;;
20324;SDS011;10320;49.482;11.256;2023-05-19T02:13:07;4.50;;;2.57;;
20324;SDS011;10320;49.482;11.256;2023-05-19T02:15:44;3.90;;;2.27;;
20324;SDS011;10320;49.482;11.256;2023-05-19T02:18:11;5.50;;;2.37;;
20324;SDS011;10320;49.482;11.256;2023-05-19T02:20:41;3.47;;;2.23;;
20324;SDS011;10320;49.482;11.256;2023-05-19T02:23:07;3.80;;;2.33;;
20324;SDS011;10320;49.482;11.256;2023-05-19T02:25:34;3.93;;;2.10;;
20324;SDS011;10320;49.482;11.256;2023-05-19T02:28:00;5.63;;;2.20;;
20324;SDS011;10320;49.482;11.256;2023-05-19T02:30:26;2.93;;;2.30;;
20324;SDS011;10320;49.482;11.256;2023-05-19T02:32:52;3.83;;;2.20;;
20324;SDS011;10320;49.482;11.256;2023-05-19T02:35:18;2.83;;;2.23;;
20324;SDS011;10320;49.482;11.256;2023-05-19T02:37:44;4.80;;;2.47;;
20324;SDS011;10320;49.482;11.256;2023-05-19T02:40:10;4.27;;;2.10;;
20324;SDS011;10320;49.482;11.256;2023-05-19T02:42:36;4.43;;;2.27;;
20324;SDS011;10320;49.482;11.256;2023-05-19T02:45:02;3.17;;;2.20;;
20324;SDS011;10320;49.482;11.256;2023-05-19T02:47:28;4.00;;;2.23;;
20324;SDS011;10320;49.482;11.256;2023-05-19T02:49:54;3.50;;;2.10;;
20324;SDS011;10320;49.482;11.256;2023-05-19T02:52:20;3.40;;;2.20;;
20324;SDS011;10320;49.482;11.256;2023-05-19T02:54:46;3.73;;;2.47;;
20324;SDS011;10320;49.482;11.256;2023-05-19T02:57:12;3.20;;;2.07;;
20324;SDS011;10320;49.482;11.256;2023-05-19T02:59:38;4.77;;;2.23;;
20324;SDS011;10320;49.482;11.256;2023-05-19T03:02:05;4.83;;;2.50;;
20324;SDS011;10320;49.482;11.256;2023-05-19T03:04:31;3.60;;;2.50;;
20324;SDS011;10320;49.482;11.256;2023-05-19T03:06:57;6.63;;;2.80;;
20324;SDS011;10320;49.482;11.256;2023-05-19T03:09:23;4.30;;;2.60;;
20324;SDS011;10320;49.482;11.256;2023-05-19T03:11:49;3.70;;;2.50;;
20324;SDS011;10320;49.482;11.256;2023-05-19T03:14:15;3.43;;;2.37;;
20324;SDS011;10320;49.482;11.256;2023-05-19T03:16:42;4.50;;;2.23;;
20324;SDS011;10320;49.482;11.256;2023-05-19T03:19:08;5.07;;;2.73;;
20324;SDS011;10320;49.482;11.256;2023-05-19T03:21:34;5.60;;;2.70;;
20324;SDS011;10320;49.482;11.256;2023-05-19T03:24:00;4.57;;;2.77;;
20324;SDS011;10320;49.482;11.256;2023-05-19T03:26:26;5.00;;;2.63;;
20324;SDS011;10320;49.482;11.256;2023-05-19T03:28:53;3.73;;;2.40;;
20324;SDS011;10320;49.482;11.256;2023-05-19T03:31:19;3.97;;;2.50;;
20324;SDS011;10320;49.482;11.256;2023-05-19T03:33:45;5.20;;;2.37;;
20324;SDS011;10320;49.482;11.256;2023-05-19T03:36:11;3.13;;;2.33;;
20324;SDS011;10320;49.482;11.256;2023-05-19T03:38:37;4.23;;;2.57;;
20324;SDS011;10320;49.482;11.256;2023-05-19T03:41:03;3.17;;;2.20;;
20324;SDS011;10320;49.482;11.256;2023-05-19T03:43:29;4.57;;;2.30;;
20324;SDS011;10320;49.482;11.256;2023-05-19T03:45:55;4.87;;;2.60;;
20324;SDS011;10320;49.482;11.256;2023-05-19T03:48:21;3.40;;;2.30;;
20324;SDS011;10320;49.482;11.256;2023-05-19T03:50:47;3.43;;;2.33;;
20324;SDS011;10320;49.482;11.256;2023-05-19T03:53:14;6.27;;;2.50;;
20324;SDS011;10320;49.482;11.256;2023-05-19T03:55:40;3.60;;;2.50;;
20324;SDS011;10320;49.482;11.256;2023-05-19T03:58:06;2.70;;;2.20;;
20324;SDS011;10320;49.482;11.256;2023-05-19T04:00:32;6.03;;;2.60;;
20324;SDS011;10320;49.482;11.256;2023-05-19T04:02:58;3.93;;;2.30;;
20324;SDS011;10320;49.482;11.256;2023-05-19T04:05:24;5.43;;;2.50;;
20324;SDS011;10320;49.482;11.256;2023-05-19T04:07:50;4.33;;;2.70;;
20324;SDS011;10320;49.482;11.256;2023-05-19T04:10:16;4.50;;;2.77;;
20324;SDS011;10320;49.482;11.256;2023-05-19T04:12:43;3.67;;;2.73;;
20324;SDS011;10320;49.482;11.256;2023-05-19T04:15:10;6.67;;;2.50;;
20324;SDS011;10320;49.482;11.256;2023-05-19T04:17:36;3.87;;;2.53;;
20324;SDS011;10320;49.482;11.256;2023-05-19T04:20:02;2.60;;;2.37;;
20324;SDS011;10320;49.482;11.256;2023-05-19T04:22:30;5.27;;;2.87;;
20324;SDS011;10320;49.482;11.256;2023-05-19T04:24:56;4.63;;;2.73;;
20324;SDS011;10320;49.482;11.256;2023-05-19T04:27:23;4.33;;;2.40;;
20324;SDS011;10320;49.482;11.256;2023-05-19T04:29:51;4.27;;;2.57;;
20324;SDS011;10320;49.482;11.256;2023-05-19T04:32:18;5.67;;;2.50;;
20324;SDS011;10320;49.482;11.256;2023-05-19T04:34:44;5.83;;;2.60;;
20324;SDS011;10320;49.482;11.256;2023-05-19T04:37:11;5.73;;;3.00;;
20324;SDS011;10320;49.482;11.256;2023-05-19T04:39:42;4.40;;;2.73;;
20324;SDS011;10320;49.482;11.256;2023-05-19T04:42:09;3.87;;;2.33;;
20324;SDS011;10320;49.482;11.256;2023-05-19T04:44:36;6.37;;;2.57;;
20324;SDS011;10320;49.482;11.256;2023-05-19T04:47:04;5.20;;;2.90;;
20324;SDS011;10320;49.482;11.256;2023-05-19T04:49:31;7.40;;;2.87;;
20324;SDS011;10320;49.482;11.256;2023-05-19T04:51:57;3.27;;;2.40;;
20324;SDS011;10320;49.482;11.256;2023-05-19T04:54:23;5.20;;;2.80;;
20324;SDS011;10320;49.482;11.256;2023-05-19T04:56:50;3.40;;;2.53;;
20324;SDS011;10320;49.482;11.256;2023-05-19T04:59:16;5.50;;;2.90;;
20324;SDS011;10320;49.482;11.256;2023-05-19T05:01:42;6.50;;;2.90;;
20324;SDS011;10320;49.482;11.256;2023-05-19T05:04:08;5.23;;;2.73;;
20324;SDS011;10320;49.482;11.256;2023-05-19T05:06:34;5.07;;;2.83;;
20324;SDS011;10320;49.482;11.256;2023-05-19T05:09:02;3.90;;;2.37;;
20324;SDS011;10320;49.482;11.256;2023-05-19T05:11:28;4.73;;;2.67;;
20324;SDS011;10320;49.482;11.256;2023-05-19T05:13:54;4.27;;;2.80;;
20324;SDS011;10320;49.482;11.256;2023-05-19T05:16:23;5.10;;;2.80;;
20324;SDS011;10320;49.482;11.256;2023-05-19T05:18:50;3.43;;;2.67;;
20324;SDS011;10320;49.482;11.256;2023-05-19T05:21:16;4.40;;;2.70;;
20324;SDS011;10320;49.482;11.256;2023-05-19T05:23:42;4.73;;;2.43;;
20324;SDS011;10320;49.482;11.256;2023-05-19T05:26:08;4.53;;;2.90;;
20324;SDS011;10320;49.482;11.256;2023-05-19T05:28:35;5.87;;;2.50;;
20324;SDS011;10320;49.482;11.256;2023-05-19T05:31:01;5.80;;;2.73;;
20324;SDS011;10320;49.482;11.256;2023-05-19T05:33:27;3.73;;;2.53;;
20324;SDS011;10320;49.482;11.256;2023-05-19T05:35:53;4.77;;;2.80;;
20324;SDS011;10320;49.482;11.256;2023-05-19T05:38:19;3.83;;;2.73;;
20324;SDS011;10320;49.482;11.256;2023-05-19T05:40:45;4.10;;;2.47;;
20324;SDS011;10320;49.482;11.256;2023-05-19T05:43:11;6.63;;;2.70;;
20324;SDS011;10320;49.482;11.256;2023-05-19T05:45:37;5.00;;;2.60;;
20324;SDS011;10320;49.482;11.256;2023-05-19T05:48:03;5.43;;;2.80;;
20324;SDS011;10320;49.482;11.256;2023-05-19T05:50:29;4.80;;;2.60;;
20324;SDS011;10320;49.482;11.256;2023-05-19T05:52:55;4.53;;;2.93;;
20324;SDS011;10320;49.482;11.256;2023-05-19T05:55:22;4.73;;;2.87;;
20324;SDS011;10320;49.482;11.256;2023-05-19T05:57:48;7.83;;;2.47;;
20324;SDS011;10320;49.482;11.256;2023-05-19T06:00:15;7.63;;;3.03;;
20324;SDS011;10320;49.482;11.256;2023-05-19T06:02:43;5.73;;;3.00;;
20324;SDS011;10320;49.482;11.256;2023-05-19T06:05:11;5.83;;;3.07;;
20324;SDS011;10320;49.482;11.256;2023-05-19T06:07:38;4.27;;;2.90;;
20324;SDS011;10320;49.482;11.256;2023-05-19T06:10:04;6.80;;;2.83;;
20324;SDS011;10320;49.482;11.256;2023-05-19T06:12:31;4.23;;;2.60;;
20324;SDS011;10320;49.482;11.256;2023-05-19T06:14:57;4.67;;;2.90;;
20324;SDS011;10320;49.482;11.256;2023-05-19T06:17:23;5.23;;;2.70;;
20324;SDS011;10320;49.482;11.256;2023-05-19T06:19:49;6.27;;;3.00;;
20324;SDS011;10320;49.482;11.256;2023-05-19T06:22:15;4.67;;;2.83;;
20324;SDS011;10320;49.482;11.256;2023-05-19T06:24:41;6.37;;;2.60;;
20324;SDS011;10320;49.482;11.256;2023-05-19T06:27:07;3.53;;;2.30;;
20324;SDS011;10320;49.482;11.256;2023-05-19T06:29:33;5.47;;;3.00;;
20324;SDS011;10320;49.482;11.256;2023-05-19T06:31:59;6.70;;;2.87;;
20324;SDS011;10320;49.482;11.256;2023-05-19T06:34:25;9.73;;;3.13;;
20324;SDS011;10320;49.482;11.256;2023-05-19T06:36:51;5.33;;;2.63;;
20324;SDS011;10320;49.482;11.256;2023-05-19T06:39:17;6.23;;;2.83;;
20324;SDS011;10320;49.482;11.256;2023-05-19T06:41:43;7.03;;;2.70;;
20324;SDS011;10320;49.482;11.256;2023-05-19T06:44:09;5.73;;;2.50;;
20324;SDS011;10320;49.482;11.256;2023-05-19T06:46:35;4.80;;;2.43;;
20324;SDS011;10320;49.482;11.256;2023-05-19T06:49:01;5.57;;;3.07;;
20324;SDS011;10320;49.482;11.256;2023-05-19T06:51:27;8.27;;;3.23;;
20324;SDS011;10320;49.482;11.256;2023-05-19T06:53:53;5.13;;;3.03;;
20324;SDS011;10320;49.482;11.256;2023-05-19T06:56:20;3.77;;;2.80;;
20324;SDS011;10320;49.482;11.256;2023-05-19T06:58:46;4.53;;;2.40;;
20324;SDS011;10320;49.482;11.256;2023-05-19T07:01:12;4.47;;;2.73;;
20324;SDS011;10320;49.482;11.256;2023-05-19T07:03:39;4.60;;;2.80;;
20324;SDS011;10320;49.482;11.256;2023-05-19T07:06:05;5.47;;;2.70;;
20324;SDS011;10320;49.482;11.256;2023-05-19T07:08:31;4.57;;;2.73;;
20324;SDS011;10320;49.482;11.256;2023-05-19T07:10:58;4.70;;;2.87;;
20324;SDS011;10320;49.482;11.256;2023-05-19T07:13:24;4.80;;;2.40;;
20324;SDS011;10320;49.482;11.256;2023-05-19T07:15:50;4.27;;;2.50;;
20324;SDS011;10320;49.482;11.256;2023-05-19T07:18:19;6.00;;;2.57;;
20324;SDS011;10320;49.482;11.256;2023-05-19T07:20:45;2.90;;;2.30;;
20324;SDS011;10320;49.482;11.256;2023-05-19T07:23:11;5.03;;;2.57;;
20324;SDS011;10320;49.482;11.256;2023-05-19T07:25:37;4.63;;;2.67;;
20324;SDS011;10320;49.482;11.256;2023-05-19T07:28:03;4.83;;;2.60;;
20324;SDS011;10320;49.482;11.256;2023-05-19T07:30:29;4.90;;;2.40;;
20324;SDS011;10320;49.482;11.256;2023-05-19T07:32:55;4.37;;;2.30;;
20324;SDS011;10320;49.482;11.256;2023-05-19T07:35:21;2.87;;;2.07;;
20324;SDS011;10320;49.482;11.256;2023-05-19T07:37:48;2.67;;;2.30;;
20324;SDS011;10320;49.482;11.256;2023-05-19T07:40:14;2.40;;;2.17;;
20324;SDS011;10320;49.482;11.256;2023-05-19T07:42:40;2.93;;;2.53;;
20324;SDS011;10320;49.482;11.256;2023-05-19T07:45:06;5.27;;;2.67;;
20324;SDS011;10320;49.482;11.256;2023-05-19T07:47:32;5.03;;;2.70;;
20324;SDS011;10320;49.482;11.256;2023-05-19T07:49:58;4.00;;;2.40;;
20324;SDS011;10320;49.482;11.256;2023-05-19T07:52:24;3.30;;;2.30;;
20324;SDS011;10320;49.482;11.256;2023-05-19T07:54:50;4.20;;;2.40;;
20324;SDS011;10320;49.482;11.256;2023-05-19T07:57:17;5.10;;;2.70;;
20324;SDS011;10320;49.482;11.256;2023-05-19T07:59:43;3.73;;;2.70;;
20324;SDS011;10320;49.482;11.256;2023-05-19T08:02:08;5.87;;;2.83;;
20324;SDS011;10320;49.482;11.256;2023-05-19T08:04:34;3.30;;;2.30;;
20324;SDS011;10320;49.482;11.256;2023-05-19T08:07:00;4.07;;;2.87;;
20324;SDS011;10320;49.482;11.256;2023-05-19T08:09:26;3.37;;;2.60;;
20324;SDS011;10320;49.482;11.256;2023-05-19T08:11:51;3.53;;;2.58;;
20324;SDS011;10320;49.482;11.256;2023-05-19T08:14:17;3.60;;;2.60;;
20324;SDS011;10320;49.482;11.256;2023-05-19T08:16:44;2.90;;;2.60;;
20324;SDS011;10320;49.482;11.256;2023-05-19T08:19:10;3.75;;;2.50;;
20324;SDS011;10320;49.482;11.256;2023-05-19T08:21:36;3.65;;;2.45;;
20324;SDS011;10320;49.482;11.256;2023-05-19T08:24:02;5.75;;;2.80;;
20324;SDS011;10320;49.482;11.256;2023-05-19T08:26:28;5.90;;;2.80;;
20324;SDS011;10320;49.482;11.256;2023-05-19T08:28:54;3.50;;;2.17;;
20324;SDS011;10320;49.482;11.256;2023-05-19T08:31:20;3.43;;;2.30;;
20324;SDS011;10320;49.482;11.256;2023-05-19T08:33:47;3.63;;;2.47;;
20324;SDS011;10320;49.482;11.256;2023-05-19T08:36:13;4.13;;;2.67;;
20324;SDS011;10320;49.482;11.256;2023-05-19T08:38:39;3.23;;;2.53;;
20324;SDS011;10320;49.482;11.256;2023-05-19T08:41:05;4.60;;;2.60;;
20324;SDS011;10320;49.482;11.256;2023-05-19T08:43:31;2.90;;;2.33;;
20324;SDS011;10320;49.482;11.256;2023-05-19T08:45:57;2.92;;;2.50;;
20324;SDS011;10320;49.482;11.256;2023-05-19T08:48:24;3.50;;;2.57;;
20324;SDS011;10320;49.482;11.256;2023-05-19T08:50:56;2.97;;;2.40;;
20324;SDS011;10320;49.482;11.256;2023-05-19T08:53:39;2.78;;;2.28;;
20324;SDS011;10320;49.482;11.256;2023-05-19T08:58:44;3.37;;;2.30;;
20324;SDS011;10320;49.482;11.256;2023-05-19T09:01:12;4.27;;;2.30;;
20324;SDS011;10320;49.482;11.256;2023-05-19T09:03:40;4.27;;;2.53;;
20324;SDS011;10320;49.482;11.256;2023-05-19T09:06:07;4.50;;;2.17;;
20324;SDS011;10320;49.482;11.256;2023-05-19T09:08:40;2.70;;;2.35;;
20324;SDS011;10320;49.482;11.256;2023-05-19T09:11:11;3.75;;;2.35;;
20324;SDS011;10320;49.482;11.256;2023-05-19T09:13:37;3.55;;;2.20;;
20324;SDS011;10320;49.482;11.256;2023-05-19T09:16:03;4.53;;;2.40;;
20324;SDS011;10320;49.482;11.256;2023-05-19T09:18:29;3.22;;;2.10;;
20324;SDS011;10320;49.482;11.256;2023-05-19T09:20:59;2.75;;;2.22;;
20324;SDS011;10320;49.482;11.256;2023-05-19T09:23:30;4.25;;;2.38;;
20324;SDS011;10320;49.482;11.256;2023-05-19T09:26:00;3.03;;;2.40;;
20324;SDS011;10320;49.482;11.256;2023-05-19T09:28:31;6.70;;;2.47;;
20324;SDS011;10320;49.482;11.256;2023-05-19T09:30:58;3.92;;;2.40;;
20324;SDS011;10320;49.482;11.256;2023-05-19T09:33:28;3.38;;;2.53;;
20324;SDS011;10320;49.482;11.256;2023-05-19T09:35:55;3.13;;;2.33;;
20324;SDS011;10320;49.482;11.256;2023-05-19T09:38:22;3.42;;;2.35;;
20324;SDS011;10320;49.482;11.256;2023-05-19T09:40:48;3.15;;;2.10;;
20324;SDS011;10320;49.482;11.256;2023-05-19T09:43:15;3.70;;;2.40;;
20324;SDS011;10320;49.482;11.256;2023-05-19T09:45:41;2.92;;;2.33;;
20324;SDS011;10320;49.482;11.256;2023-05-19T09:48:06;4.30;;;2.50;;
20324;SDS011;10320;49.482;11.256;2023-05-19T09:50:32;2.97;;;2.17;;
20324;SDS011;10320;49.482;11.256;2023-05-19T09:52:58;4.00;;;2.25;;
20324;SDS011;10320;49.482;11.256;2023-05-19T09:55:25;4.45;;;2.25;;
20324;SDS011;10320;49.482;11.256;2023-05-19T09:57:53;2.20;;;2.00;;
20324;SDS011;10320;49.482;11.256;2023-05-19T10:00:20;3.03;;;2.20;;
20324;SDS011;10320;49.482;11.256;2023-05-19T10:02:47;2.53;;;2.10;;
20324;SDS011;10320;49.482;11.256;2023-05-19T10:05:15;3.05;;;2.35;;
20324;SDS011;10320;49.482;11.256;2023-05-19T10:07:43;3.38;;;2.20;;
20324;SDS011;10320;49.482;11.256;2023-05-19T10:10:12;2.58;;;2.10;;
20324;SDS011;10320;49.482;11.256;2023-05-19T10:12:39;2.58;;;1.98;;
20324;SDS011;10320;49.482;11.256;2023-05-19T10:15:09;5.32;;;2.35;;
20324;SDS011;10320;49.482;11.256;2023-05-19T10:17:44;3.25;;;2.08;;
20324;SDS011;10320;49.482;11.256;2023-05-19T10:20:14;3.13;;;1.90;;
20324;SDS011;10320;49.482;11.256;2023-05-19T10:22:41;3.38;;;1.98;;
20324;SDS011;10320;49.482;11.256;2023-05-19T10:25:08;2.72;;;2.17;;
20324;SDS011;10320;49.482;11.256;2023-05-19T10:27:35;3.60;;;2.20;;
20324;SDS011;10320;49.482;11.256;2023-05-19T10:30:09;1.98;;;1.80;;
20324;SDS011;10320;49.482;11.256;2023-05-19T10:32:37;3.33;;;1.80;;
20324;SDS011;10320;49.482;11.256;2023-05-19T10:45:52;3.35;;;2.03;;
20324;SDS011;10320;49.482;11.256;2023-05-19T10:48:19;3.40;;;2.10;;
20324;SDS011;10320;49.482;11.256;2023-05-19T10:50:46;3.72;;;2.20;;
20324;SDS011;10320;49.482;11.256;2023-05-19T10:53:15;2.75;;;2.20;;
20324;SDS011;10320;49.482;11.256;2023-05-19T10:55:52;2.55;;;2.10;;
20324;SDS011;10320;49.482;11.256;2023-05-19T10:58:40;3.80;;;1.98;;
20324;SDS011;10320;49.482;11.256;2023-05-19T11:01:15;2.60;;;2.13;;
20324;SDS011;10320;49.482;11.256;2023-05-19T11:03:48;3.47;;;2.05;;
20324;SDS011;10320;49.482;11.256;2023-05-19T11:06:26;3.47;;;2.08;;
20324;SDS011;10320;49.482;11.256;2023-05-19T11:08:57;3.03;;;2.13;;
20324;SDS011;10320;49.482;11.256;2023-05-19T11:11:45;3.28;;;1.80;;
20324;SDS011;10320;49.482;11.256;2023-05-19T11:14:16;2.20;;;2.00;;
20324;SDS011;10320;49.482;11.256;2023-05-19T11:16:45;2.92;;;2.20;;
20324;SDS011;10320;49.482;11.256;2023-05-19T11:21:49;2.35;;;2.15;;
20324;SDS011;10320;49.482;11.256;2023-05-19T11:24:34;2.78;;;2.20;;
20324;SDS011;10320;49.482;11.256;2023-05-19T11:30:00;3.17;;;1.98;;
20324;SDS011;10320;49.482;11.256;2023-05-19T11:32:33;2.78;;;2.03;;
20324;SDS011;10320;49.482;11.256;2023-05-19T11:35:03;3.00;;;2.20;;
20324;SDS011;10320;49.482;11.256;2023-05-19T11:37:32;2.85;;;2.17;;
20324;SDS011;10320;49.482;11.256;2023-05-19T11:40:05;2.88;;;2.10;;
20324;SDS011;10320;49.482;11.256;2023-05-19T11:42:31;2.28;;;2.00;;
20324;SDS011;10320;49.482;11.256;2023-05-19T11:45:01;2.60;;;2.13;;
20324;SDS011;10320;49.482;11.256;2023-05-19T11:47:29;3.28;;;2.33;;
20324;SDS011;10320;49.482;11.256;2023-05-19T11:49:56;3.25;;;2.10;;
20324;SDS011;10320;49.482;11.256;2023-05-19T11:52:23;2.13;;;1.90;;
20324;SDS011;10320;49.482;11.256;2023-05-19T11:54:51;2.80;;;2.00;;
20324;SDS011;10320;49.482;11.256;2023-05-19T11:57:16;2.60;;;2.05;;
20324;SDS011;10320;49.482;11.256;2023-05-19T11:59:42;2.47;;;1.90;;
20324;SDS011;10320;49.482;11.256;2023-05-19T12:04:44;2.35;;;2.15;;
20324;SDS011;10320;49.482;11.256;2023-05-19T12:07:14;2.55;;;1.90;;
20324;SDS011;10320;49.482;11.256;2023-05-19T12:09:44;2.55;;;2.35;;
20324;SDS011;10320;49.482;11.256;2023-05-19T12:12:17;3.03;;;2.00;;
20324;SDS011;10320;49.482;11.256;2023-05-19T12:14:44;2.90;;;2.25;;
20324;SDS011;10320;49.482;11.256;2023-05-19T12:17:15;2.05;;;1.85;;
20324;SDS011;10320;49.482;11.256;2023-05-19T12:19:41;3.42;;;2.45;;
20324;SDS011;10320;49.482;11.256;2023-05-19T12:22:08;2.40;;;2.20;;
20324;SDS011;10320;49.482;11.256;2023-05-19T12:24:35;2.90;;;2.05;;
20324;SDS011;10320;49.482;11.256;2023-05-19T12:27:11;3.17;;;2.10;;
20324;SDS011;10320;49.482;11.256;2023-05-19T12:29:38;2.70;;;2.10;;
20324;SDS011;10320;49.482;11.256;2023-05-19T12:32:07;3.13;;;2.17;;
20324;SDS011;10320;49.482;11.256;2023-05-19T12:34:34;4.07;;;2.13;;
20324;SDS011;10320;49.482;11.256;2023-05-19T12:37:01;2.60;;;2.40;;
20324;SDS011;10320;49.482;11.256;2023-05-19T12:39:28;2.38;;;2.03;;
20324;SDS011;10320;49.482;11.256;2023-05-19T12:42:00;2.65;;;2.10;;
20324;SDS011;10320;49.482;11.256;2023-05-19T12:44:26;3.08;;;2.40;;
20324;SDS011;10320;49.482;11.256;2023-05-19T12:46:52;2.63;;;2.42;;
20324;SDS011;10320;49.482;11.256;2023-05-19T12:49:18;3.60;;;2.10;;
20324;SDS011;10320;49.482;11.256;2023-05-19T12:51:50;2.17;;;1.77;;
20324;SDS011;10320;49.482;11.256;2023-05-19T12:54:19;2.17;;;1.98;;
20324;SDS011;10320;49.482;11.256;2023-05-19T12:56:51;2.17;;;1.98;;
20324;SDS011;10320;49.482;11.256;2023-05-19T12:59:24;2.78;;;2.05;;
20324;SDS011;10320;49.482;11.256;2023-05-19T13:01:57;2.45;;;1.92;;
20324;SDS011;10320;49.482;11.256;2023-05-19T13:04:23;3.40;;;2.08;;
20324;SDS011;10320;49.482;11.256;2023-05-19T13:06:50;2.95;;;2.00;;
20324;SDS011;10320;49.482;11.256;2023-05-19T13:09:17;2.65;;;1.92;;
20324;SDS011;10320;49.482;11.256;2023-05-19T13:11:43;2.75;;;2.03;;
20324;SDS011;10320;49.482;11.256;2023-05-19T13:14:09;2.25;;;1.95;;
20324;SDS011;10320;49.482;11.256;2023-05-19T13:16:37;2.88;;;1.98;;
20324;SDS011;10320;49.482;11.256;2023-05-19T13:19:03;3.80;;;1.92;;
20324;SDS011;10320;49.482;11.256;2023-05-19T13:21:29;2.15;;;1.95;;
20324;SDS011;10320;49.482;11.256;2023-05-19T13:23:55;2.75;;;2.05;;
20324;SDS011;10320;49.482;11.256;2023-05-19T13:26:20;2.00;;;1.90;;
20324;SDS011;10320;49.482;11.256;2023-05-19T13:28:47;3.70;;;2.13;;
20324;SDS011;10320;49.482;11.256;2023-05-19T13:31:13;2.30;;;2.10;;
20324;SDS011;10320;49.482;11.256;2023-05-19T13:33:38;2.13;;;1.70;;
20324;SDS011;10320;49.482;11.256;2023-05-19T13:36:04;2.72;;;1.90;;
20324;SDS011;10320;49.482;11.256;2023-05-19T13:38:31;2.25;;;1.92;;
20324;SDS011;10320;49.482;11.256;2023-05-19T13:40:56;2.13;;;1.92;;
20324;SDS011;10320;49.482;11.256;2023-05-19T13:43:22;2.30;;;2.08;;
20324;SDS011;10320;49.482;11.256;2023-05-19T13:45:48;2.05;;;1.73;;
20324;SDS011;10320;49.482;11.256;2023-05-19T13:48:13;2.78;;;1.80;;
20324;SDS011;10320;49.482;11.256;2023-05-19T13:50:39;2.15;;;1.88;;
20324;SDS011;10320;49.482;11.256;2023-05-19T13:53:05;2.67;;;1.70;;
20324;SDS011;10320;49.482;11.256;2023-05-19T13:55:31;2.05;;;1.80;;
20324;SDS011;10320;49.482;11.256;2023-05-19T13:57:57;2.42;;;2.00;;
20324;SDS011;10320;49.482;11.256;2023-05-19T14:00:22;2.92;;;2.05;;
20324;SDS011;10320;49.482;11.256;2023-05-19T14:02:48;4.20;;;2.13;;
20324;SDS011;10320;49.482;11.256;2023-05-19T14:05:14;3.97;;;1.80;;
20324;SDS011;10320;49.482;11.256;2023-05-19T14:07:40;2.28;;;1.95;;
20324;SDS011;10320;49.482;11.256;2023-05-19T14:10:06;2.72;;;1.90;;
20324;SDS011;10320;49.482;11.256;2023-05-19T14:12:33;2.35;;;1.70;;
20324;SDS011;10320;49.482;11.256;2023-05-19T14:15:00;2.83;;;1.60;;
20324;SDS011;10320;49.482;11.256;2023-05-19T14:17:26;3.55;;;2.05;;
20324;SDS011;10320;49.482;11.256;2023-05-19T14:19:52;1.70;;;1.60;;
20324;SDS011;10320;49.482;11.256;2023-05-19T14:22:18;2.53;;;1.80;;
20324;SDS011;10320;49.482;11.256;2023-05-19T14:24:44;2.55;;;1.60;;
20324;SDS011;10320;49.482;11.256;2023-05-19T14:27:10;2.47;;;1.70;;
20324;SDS011;10320;49.482;11.256;2023-05-19T14:29:36;2.63;;;1.85;;
20324;SDS011;10320;49.482;11.256;2023-05-19T14:32:02;2.67;;;2.00;;
20324;SDS011;10320;49.482;11.256;2023-05-19T14:34:29;2.25;;;1.85;;
20324;SDS011;10320;49.482;11.256;2023-05-19T14:36:55;2.47;;;1.80;;
20324;SDS011;10320;49.482;11.256;2023-05-19T14:39:21;3.00;;;2.20;;
20324;SDS011;10320;49.482;11.256;2023-05-19T14:41:47;2.70;;;2.10;;
20324;SDS011;10320;49.482;11.256;2023-05-19T14:44:15;2.85;;;1.95;;
20324;SDS011;10320;49.482;11.256;2023-05-19T14:46:41;2.13;;;1.92;;
20324;SDS011;10320;49.482;11.256;2023-05-19T14:49:07;2.75;;;1.63;;
20324;SDS011;10320;49.482;11.256;2023-05-19T14:51:33;1.92;;;1.80;;
20324;SDS011;10320;49.482;11.256;2023-05-19T14:53:59;2.00;;;1.80;;
20324;SDS011;10320;49.482;11.256;2023-05-19T14:56:26;4.70;;;2.42;;
20324;SDS011;10320;49.482;11.256;2023-05-19T14:58:53;2.22;;;1.90;;
20324;SDS011;10320;49.482;11.256;2023-05-19T15:01:20;2.40;;;2.00;;
20324;SDS011;10320;49.482;11.256;2023-05-19T15:03:46;2.15;;;1.92;;
20324;SDS011;10320;49.482;11.256;2023-05-19T15:06:12;2.33;;;2.13;;
20324;SDS011;10320;49.482;11.256;2023-05-19T15:08:38;2.95;;;2.08;;
20324;SDS011;10320;49.482;11.256;2023-05-19T15:11:05;2.58;;;2.00;;